Time;durP1;ratioP1;P1;durP2;ratioP2;P2;SDS_P1;SDS_P2;PMS_P1;PMS_P2;Temp;Humidity;BMP_temperature;BMP_pressure;BME280_temperature;BME280_humidity;BME280_pressure;Samples;Min_cycle;Max_cycle;Signal;HPM_P1;HPM_P2
2022/05/31 00:01:21;;;;;;;6.10;4.03;;;;;;;21.73;66.83;95020.88;5065157;28;20229;-71
2022/05/31 00:03:49;;;;;;;6.05;4.18;;;;;;;21.41;68.57;95040.63;5064506;28;20208;-70
2022/05/31 00:06:16;;;;;;;7.03;3.88;;;;;;;21.30;68.60;95030.25;5064948;28;20581;-70
2022/05/31 00:08:42;;;;;;;6.43;5.45;;;;;;;20.69;71.08;95027.09;5061972;28;20214;-70
2022/05/31 00:11:10;;;;;;;6.45;3.83;;;;;;;20.59;71.52;95036.44;5064277;28;21407;-69
2022/05/31 00:13:36;;;;;;;10.75;4.72;;;;;;;20.71;71.54;95036.38;5062027;28;20209;-70
2022/05/31 00:16:03;;;;;;;12.48;5.13;;;;;;;20.71;71.77;95032.97;5065721;28;20274;-69
2022/05/31 00:18:30;;;;;;;14.88;10.57;;;;;;;20.86;71.33;95044.75;5066776;28;22209;-71
2022/05/31 00:20:58;;;;;;;9.15;5.80;;;;;;;21.04;70.53;95035.59;5065102;28;20230;-70
2022/05/31 00:23:25;;;;;;;7.43;4.53;;;;;;;20.83;70.09;95024.31;5066471;28;20812;-69
2022/05/31 00:25:52;;;;;;;9.93;8.43;;;;;;;21.08;70.43;95032.81;5066499;28;20647;-71
2022/05/31 00:28:19;;;;;;;9.48;6.18;;;;;;;21.36;69.34;95029.81;5065409;28;20233;-70
2022/05/31 00:30:46;;;;;;;8.52;7.57;;;;;;;21.62;68.16;95038.16;5064140;28;20202;-69
2022/05/31 00:33:13;;;;;;;10.75;5.78;;;;;;;21.99;66.45;95046.47;5064518;28;20279;-69
2022/05/31 00:35:44;;;;;;;6.15;5.18;;;;;;;22.27;65.21;95034.78;5062242;28;20214;-69
2022/05/31 00:38:13;;;;;;;6.88;4.80;;;;;;;22.05;65.54;95026.09;5063518;28;20334;-70
2022/05/31 00:40:40;;;;;;;4.95;4.55;;;;;;;21.45;68.26;95036.88;5063580;28;20272;-70
2022/05/31 00:43:12;;;;;;;11.27;7.13;;;;;;;21.48;67.88;95040.97;5063900;28;20705;-69
2022/05/31 00:45:45;;;;;;;11.57;7.82;;;;;;;21.41;68.01;95040.63;5065441;28;20288;-69
2022/05/31 00:48:16;;;;;;;15.93;7.63;;;;;;;21.32;67.90;95042.13;5064342;28;20272;-70
2022/05/31 00:50:45;;;;;;;11.57;7.47;;;;;;;21.15;68.92;95034.81;5062725;28;20201;-69
2022/05/31 00:53:17;;;;;;;9.50;6.32;;;;;;;21.08;68.67;95037.97;5063692;28;20225;-71
2022/05/31 00:55:50;;;;;;;6.30;5.78;;;;;;;21.08;69.43;95040.56;5062543;28;20217;-71
2022/05/31 00:58:19;;;;;;;7.05;4.93;;;;;;;21.05;69.03;95033.84;5062201;28;20251;-69
2022/05/31 01:00:46;;;;;;;12.63;5.95;;;;;;;21.08;69.08;95043.13;5061644;28;20202;-70
2022/05/31 01:03:17;;;;;;;8.30;6.35;;;;;;;21.02;69.23;95042.69;5062188;28;20266;-69
2022/05/31 01:05:43;;;;;;;7.10;5.20;;;;;;;20.87;69.59;95040.41;5060459;28;20194;-70
2022/05/31 01:08:11;;;;;;;11.25;6.03;;;;;;;20.88;69.75;95035.13;5060088;28;20893;-70
2022/05/31 01:10:41;;;;;;;13.48;5.68;;;;;;;20.96;69.75;95043.13;5061077;28;20204;-70
2022/05/31 01:13:09;;;;;;;7.15;5.45;;;;;;;20.57;71.31;95048.63;5062571;28;20271;-70
2022/05/31 01:15:37;;;;;;;6.20;4.97;;;;;;;20.53;71.15;95042.06;5061248;28;20210;-71
2022/05/31 01:18:05;;;;;;;7.18;5.30;;;;;;;20.19;72.83;95039.31;5062192;28;20213;-70
2022/05/31 01:20:33;;;;;;;8.75;7.05;;;;;;;20.53;71.62;95042.91;5061465;28;20202;-71
2022/05/31 01:23:06;;;;;;;14.32;12.80;;;;;;;21.01;69.67;95053.13;5062266;28;20204;-71
2022/05/31 01:25:51;;;;;;;8.07;4.90;;;;;;;20.73;70.17;95049.19;5060453;28;20766;-70
2022/05/31 01:28:32;;;;;;;6.53;5.15;;;;;;;20.63;70.92;95053.38;5064210;28;20231;-68
2022/05/31 01:31:03;;;;;;;10.43;4.50;;;;;;;20.50;71.15;95052.63;5062741;28;20699;-70
2022/05/31 01:33:35;;;;;;;11.50;5.60;;;;;;;20.44;71.40;95050.47;5063377;28;20202;-68
2022/05/31 01:36:11;;;;;;;10.23;4.53;;;;;;;20.21;72.51;95040.03;5063844;28;20226;-70
2022/05/31 01:38:44;;;;;;;6.43;4.50;;;;;;;19.84;73.70;95048.72;5062095;28;20205;-69
2022/05/31 01:41:19;;;;;;;13.50;5.80;;;;;;;19.49;75.41;95048.56;5062763;28;20233;-68
2022/05/31 01:43:48;;;;;;;9.10;4.90;;;;;;;19.30;76.45;95054.94;5062854;28;20220;-70
2022/05/31 01:46:21;;;;;;;11.73;5.80;;;;;;;19.38;76.64;95049.28;5062404;28;20303;-68
2022/05/31 01:48:47;;;;;;;16.50;5.72;;;;;;;19.60;75.92;95048.66;5059359;28;20229;-69
2022/05/31 01:51:15;;;;;;;7.90;5.60;;;;;;;20.05;74.19;95054.94;5060252;28;20231;-70
2022/05/31 01:53:43;;;;;;;4.93;4.50;;;;;;;20.08;74.17;95046.16;5062325;28;20746;-71
2022/05/31 01:56:11;;;;;;;6.05;4.88;;;;;;;20.19;73.73;95036.72;5062600;28;20330;-70
2022/05/31 01:58:41;;;;;;;7.70;5.30;;;;;;;20.51;72.56;95049.09;5062967;28;20686;-70
2022/05/31 02:01:09;;;;;;;9.82;4.78;;;;;;;20.29;73.10;95047.22;5063272;28;20243;-69
2022/05/31 02:03:38;;;;;;;10.10;5.50;;;;;;;20.03;73.84;95049.91;5062920;28;20283;-70
2022/05/31 02:06:06;;;;;;;12.45;5.68;;;;;;;19.79;74.83;95048.22;5062056;28;20201;-69
2022/05/31 02:08:34;;;;;;;8.00;4.88;;;;;;;19.67;76.44;95047.31;5063893;28;20225;-70
2022/05/31 02:11:00;;;;;;;5.43;5.00;;;;;;;19.87;75.67;95048.50;5061823;28;20225;-71
2022/05/31 02:13:27;;;;;;;6.93;4.88;;;;;;;19.78;75.96;95046.59;5062564;28;20221;-70
2022/05/31 02:15:55;;;;;;;11.65;5.55;;;;;;;19.76;75.92;95053.59;5061796;28;20216;-71
2022/05/31 02:19:15;;;;;;;6.70;5.30;;;;;;;19.96;74.83;95048.69;5062736;28;20190;-70
2022/05/31 02:21:10;;;;;;;7.32;5.32;;;;;;;20.03;74.85;95049.09;5062336;28;20201;-70
2022/05/31 02:23:39;;;;;;;9.40;6.32;;;;;;;19.89;75.59;95062.94;5062075;28;20299;-71
2022/05/31 02:26:06;;;;;;;5.10;4.70;;;;;;;19.62;77.08;95070.00;5061977;28;20323;-70
2022/05/31 02:28:33;;;;;;;8.00;6.10;;;;;;;19.24;78.91;95070.03;5061828;28;20320;-72
2022/05/31 02:30:59;;;;;;;6.53;5.80;;;;;;;19.14;79.43;95071.56;5061838;28;20688;-71
2022/05/31 02:33:26;;;;;;;8.88;5.57;;;;;;;19.00;80.53;95068.16;5062385;28;20234;-69
2022/05/31 02:35:53;;;;;;;12.45;6.53;;;;;;;18.97;80.50;95060.63;5061247;28;20788;-70
2022/05/31 02:38:19;;;;;;;6.22;5.53;;;;;;;19.09;80.20;95066.69;5061084;28;20267;-70
2022/05/31 02:40:47;;;;;;;6.95;5.05;;;;;;;19.13;80.05;95067.31;5059900;28;20283;-70
2022/05/31 02:43:14;;;;;;;9.25;6.32;;;;;;;19.00;80.79;95073.31;5060572;28;20286;-71
2022/05/31 02:45:41;;;;;;;9.18;6.00;;;;;;;19.02;80.61;95071.47;5060101;28;20602;-69
2022/05/31 02:48:08;;;;;;;10.07;6.65;;;;;;;19.15;79.83;95073.19;5060680;28;20518;-70
2022/05/31 02:50:39;;;;;;;12.52;5.57;;;;;;;19.55;77.96;95084.28;5061171;28;20290;-70
2022/05/31 02:53:06;;;;;;;6.70;5.43;;;;;;;19.98;75.69;95082.94;5060790;28;20202;-70
2022/05/31 02:55:33;;;;;;;7.18;5.07;;;;;;;20.08;74.96;95083.09;5059750;28;20264;-70
2022/05/31 02:58:01;;;;;;;6.25;4.72;;;;;;;20.02;74.97;95086.97;5060130;28;20249;-70
2022/05/31 03:00:27;;;;;;;5.38;4.85;;;;;;;20.16;74.35;95088.56;5059254;28;20561;-70
2022/05/31 03:02:54;;;;;;;10.02;5.65;;;;;;;20.09;74.53;95095.06;5059407;28;20225;-71
2022/05/31 03:05:21;;;;;;;5.57;4.95;;;;;;;20.20;73.96;95100.31;5059159;28;20197;-70
2022/05/31 03:07:48;;;;;;;7.90;5.63;;;;;;;20.17;74.28;95100.53;5063651;28;20330;-69
2022/05/31 03:10:14;;;;;;;8.02;5.68;;;;;;;20.17;73.86;95100.53;5061260;28;20667;-71
2022/05/31 03:12:41;;;;;;;7.95;5.78;;;;;;;20.26;73.10;95099.88;5063229;28;20552;-70
2022/05/31 03:15:14;;;;;;;11.43;5.93;;;;;;;20.05;74.01;95098.78;5060911;28;20240;-70
2022/05/31 03:17:45;;;;;;;11.27;5.95;;;;;;;20.16;73.49;95095.47;5062006;28;20202;-71
2022/05/31 03:20:16;;;;;;;14.70;5.47;;;;;;;20.21;73.71;95094.22;5061276;28;20209;-70
2022/05/31 03:22:47;;;;;;;7.10;5.25;;;;;;;20.28;72.89;95100.59;5061026;28;20255;-72
2022/05/31 03:25:18;;;;;;;7.07;5.18;;;;;;;20.87;71.59;95107.56;5062040;28;21030;-71
2022/05/31 03:27:45;;;;;;;9.30;5.00;;;;;;;21.83;67.99;95108.91;5062095;28;20256;-70
2022/05/31 03:30:14;;;;;;;8.82;5.47;;;;;;;22.75;64.54;95107.69;5062317;28;20290;-70
2022/05/31 03:32:42;;;;;;;15.30;5.35;;;;;;;23.70;61.05;95114.50;5063810;28;20262;-71
2022/05/31 03:35:09;;;;;;;7.18;5.00;;;;;;;24.41;58.51;95117.91;5062730;28;20641;-70
2022/05/31 03:37:36;;;;;;;5.45;5.00;;;;;;;24.72;57.47;95113.44;5063982;28;20225;-71
2022/05/31 03:40:04;;;;;;;6.78;5.05;;;;;;;25.15;55.75;95116.63;5063125;28;20758;-69
2022/05/31 03:42:31;;;;;;;5.28;4.88;;;;;;;25.53;54.88;95121.72;5064745;28;20584;-71
2022/05/31 03:44:58;;;;;;;11.10;4.88;;;;;;;25.60;54.57;95122.81;5064417;28;20266;-69
2022/05/31 03:47:26;;;;;;;10.23;4.65;;;;;;;25.37;55.29;95117.13;5064306;28;20205;-72
2022/05/31 03:49:53;;;;;;;8.20;5.18;;;;;;;25.06;56.05;95120.84;5063369;28;20201;-70
2022/05/31 03:52:19;;;;;;;5.25;4.05;;;;;;;24.64;56.62;95117.69;5064386;28;20693;-70
2022/05/31 03:54:46;;;;;;;11.35;5.38;;;;;;;24.37;57.69;95119.13;5063868;28;20692;-71
2022/05/31 03:57:18;;;;;;;10.63;4.90;;;;;;;24.38;57.51;95119.97;5065284;28;20221;-70
2022/05/31 03:59:44;;;;;;;11.57;5.53;;;;;;;24.61;57.67;95118.75;5063636;28;21503;-72
2022/05/31 04:02:11;;;;;;;10.15;5.55;;;;;;;24.53;57.11;95110.00;5064469;28;20225;-71
2022/05/31 04:04:39;;;;;;;6.90;5.53;;;;;;;24.57;57.36;95112.19;5064260;28;20243;-71
2022/05/31 04:07:06;;;;;;;15.48;10.32;;;;;;;24.86;56.52;95116.59;5064179;28;20245;-71
2022/05/31 04:09:33;;;;;;;23.00;12.57;;;;;;;24.93;56.37;95123.72;5063978;28;20349;-71
2022/05/31 04:12:00;;;;;;;16.10;10.30;;;;;;;24.91;56.63;95119.59;5064434;28;20291;-71
2022/05/31 04:14:27;;;;;;;11.07;6.90;;;;;;;24.81;56.92;95116.16;5063710;28;20251;-71
2022/05/31 04:16:54;;;;;;;7.88;5.53;;;;;;;24.54;57.34;95116.81;5063622;28;20566;-71
2022/05/31 04:19:20;;;;;;;14.25;6.30;;;;;;;24.31;57.96;95126.63;5063770;28;20202;-71
2022/05/31 04:21:48;;;;;;;12.00;6.65;;;;;;;24.10;58.79;95129.28;5064166;28;20852;-71
2022/05/31 04:24:16;;;;;;;9.88;6.20;;;;;;;23.94;59.50;95141.94;5063138;28;20261;-70
2022/05/31 04:26:45;;;;;;;10.13;5.90;;;;;;;24.01;59.23;95145.63;5063906;28;20194;-70
2022/05/31 04:29:12;;;;;;;10.00;5.72;;;;;;;23.95;58.46;95130.59;5063888;28;20261;-71
2022/05/31 04:31:39;;;;;;;15.98;9.63;;;;;;;22.98;61.90;95142.16;5064644;28;20299;-69
2022/05/31 04:34:05;;;;;;;22.77;15.35;;;;;;;22.63;63.32;95139.75;5063788;28;20194;-69
2022/05/31 04:36:33;;;;;;;18.90;12.55;;;;;;;22.43;64.21;95137.94;5064700;28;20306;-71
2022/05/31 04:39:01;;;;;;;12.50;7.57;;;;;;;23.01;62.65;95129.75;5063851;28;20308;-71
2022/05/31 04:41:29;;;;;;;6.78;6.25;;;;;;;23.67;60.45;95151.09;5062759;28;20627;-70
2022/05/31 04:43:58;;;;;;;8.50;6.68;;;;;;;23.99;59.99;95143.19;5062830;28;20202;-71
2022/05/31 04:46:26;;;;;;;14.48;6.50;;;;;;;24.25;58.96;95156.53;5064274;28;20230;-70
2022/05/31 04:48:54;;;;;;;12.98;7.10;;;;;;;24.41;58.70;95156.06;5064791;28;20286;-71
2022/05/31 04:51:20;;;;;;;12.25;6.47;;;;;;;24.42;58.38;95155.09;5063389;28;20290;-70
2022/05/31 04:53:47;;;;;;;14.77;7.13;;;;;;;24.59;57.85;95164.03;5064362;28;20197;-70
2022/05/31 04:56:19;;;;;;;10.23;6.55;;;;;;;24.72;57.82;95162.00;5063751;28;20304;-71
2022/05/31 04:58:45;;;;;;;13.40;6.82;;;;;;;24.71;57.13;95157.78;5065101;28;20656;-71
2022/05/31 05:01:12;;;;;;;11.50;6.90;;;;;;;24.68;57.62;95158.03;5063609;28;20229;-71
2022/05/31 05:03:41;;;;;;;17.95;6.85;;;;;;;24.75;57.18;95156.50;5064555;28;20239;-70
2022/05/31 05:06:09;;;;;;;15.40;6.65;;;;;;;24.93;56.60;95154.09;5064631;28;20206;-70
2022/05/31 05:08:37;;;;;;;15.05;6.35;;;;;;;25.32;55.64;95155.75;5063117;28;20379;-71
2022/05/31 05:11:07;;;;;;;19.33;6.90;;;;;;;25.94;54.29;95156.19;5064614;28;20307;-73
2022/05/31 05:13:35;;;;;;;10.60;7.22;;;;;;;26.28;53.64;95148.63;5063646;28;20206;-71
2022/05/31 05:16:01;;;;;;;17.25;7.30;;;;;;;27.27;50.50;95152.94;5063294;28;20272;-71
2022/05/31 05:18:29;;;;;;;10.80;6.55;;;;;;;28.98;46.64;95154.66;5064414;28;20206;-71
2022/05/31 05:20:56;;;;;;;12.15;6.95;;;;;;;31.51;41.56;95155.50;5062945;28;20334;-72
2022/05/31 05:23:23;;;;;;;9.80;7.22;;;;;;;33.57;37.32;95144.75;5063097;28;20202;-70
2022/05/31 05:25:51;;;;;;;12.48;7.45;;;;;;;35.25;35.03;95147.03;5063025;28;21283;-73
2022/05/31 05:31:05;;;;;;;9.23;7.60;;;;;;;37.26;30.98;95138.28;5063401;28;20204;-72
2022/05/31 05:33:33;;;;;;;22.77;8.48;;;;;;;38.11;29.31;95147.41;5063313;28;20237;-73
2022/05/31 05:35:59;;;;;;;11.80;7.32;;;;;;;38.61;28.68;95148.09;5063005;28;20935;-72
2022/05/31 05:38:26;;;;;;;11.93;6.25;;;;;;;38.95;27.67;95148.47;5064935;28;20221;-70
2022/05/31 05:40:53;;;;;;;16.02;7.05;;;;;;;39.06;27.37;95143.25;5063416;28;20278;-72
2022/05/31 05:43:19;;;;;;;13.95;6.97;;;;;;;39.05;27.29;95152.25;5063295;28;20848;-73
2022/05/31 05:45:46;;;;;;;7.00;6.50;;;;;;;38.27;28.67;95152.13;5063474;28;20284;-72
2022/05/31 05:48:14;;;;;;;10.85;6.18;;;;;;;38.48;28.45;95145.56;5064350;28;20253;-72
2022/05/31 05:50:41;;;;;;;16.92;6.97;;;;;;;38.29;28.92;95144.75;5063157;28;20197;-72
2022/05/31 05:53:10;;;;;;;10.15;7.20;;;;;;;37.60;29.60;95150.28;5063841;28;20746;-71
2022/05/31 05:55:37;;;;;;;9.90;6.20;;;;;;;37.91;29.39;95152.06;5061992;28;20750;-71
2022/05/31 05:58:08;;;;;;;11.80;7.07;;;;;;;37.56;30.15;95149.06;5063373;28;20225;-73
2022/05/31 06:00:38;;;;;;;16.05;7.53;;;;;;;37.84;29.38;95156.63;5063504;28;20232;-74
2022/05/31 06:03:11;;;;;;;14.07;7.50;;;;;;;36.93;30.66;95165.75;5062533;28;20282;-73
2022/05/31 06:05:41;;;;;;;13.20;7.75;;;;;;;37.00;30.61;95161.25;5061974;28;20270;-72
2022/05/31 06:08:13;;;;;;;16.75;7.97;;;;;;;36.91;30.63;95162.50;5063491;28;20198;-69
2022/05/31 06:10:44;;;;;;;13.45;7.80;;;;;;;36.64;31.06;95160.97;5062813;28;20286;-72
2022/05/31 06:13:18;;;;;;;16.15;7.63;;;;;;;36.96;30.79;95162.69;5063270;28;20692;-71
2022/05/31 06:15:50;;;;;;;10.00;7.60;;;;;;;36.77;30.42;95160.94;5061953;28;20198;-71
2022/05/31 06:18:22;;;;;;;14.23;6.68;;;;;;;36.61;30.94;95162.22;5062608;28;20704;-72
2022/05/31 06:20:55;;;;;;;17.58;7.53;;;;;;;35.44;33.49;95154.19;5062255;28;20206;-71
2022/05/31 06:23:22;;;;;;;8.05;7.20;;;;;;;35.38;32.85;95155.03;5062959;28;20197;-71
2022/05/31 06:25:50;;;;;;;12.05;7.30;;;;;;;35.37;32.92;95148.94;5061566;28;20342;-71
2022/05/31 06:28:17;;;;;;;181.07;131.15;;;;;;;35.55;32.69;95153.59;5063172;28;20197;-71
2022/05/31 06:30:43;;;;;;;23.35;19.15;;;;;;;34.83;33.32;95153.47;5062759;28;20233;-71
2022/05/31 06:33:10;;;;;;;8.98;7.05;;;;;;;34.31;34.67;95153.00;5062682;28;20688;-71
2022/05/31 06:35:37;;;;;;;15.38;6.90;;;;;;;33.90;35.41;95154.78;5061280;28;20228;-71
2022/05/31 06:38:06;;;;;;;6.80;6.20;;;;;;;33.23;36.69;95155.16;5062769;28;20204;-71
2022/05/31 06:40:33;;;;;;;8.05;6.80;;;;;;;32.91;37.28;95136.25;5060356;28;20228;-71
2022/05/31 06:43:00;;;;;;;13.75;7.53;;;;;;;32.67;38.20;95157.56;5062975;28;20230;-71
2022/05/31 06:45:27;;;;;;;12.52;8.82;;;;;;;32.42;38.49;95155.25;5062665;28;20279;-71
2022/05/31 06:47:54;;;;;;;18.15;6.65;;;;;;;32.32;38.60;95149.47;5063226;28;20229;-70
2022/05/31 06:50:20;;;;;;;9.80;7.85;;;;;;;32.14;39.47;95143.75;5062245;28;20302;-70
2022/05/31 06:58:17;;;;;;;12.60;5.88;;;;;;;31.56;40.29;95134.78;5063363;28;20339;-71
2022/05/31 07:00:44;;;;;;;12.05;5.20;;;;;;;31.25;41.24;95140.13;5062594;28;20205;-71
2022/05/31 07:03:10;;;;;;;14.15;8.10;;;;;;;30.90;41.82;95144.13;5063044;28;20230;-71
2022/05/31 07:05:38;;;;;;;6.50;5.35;;;;;;;30.64;42.28;95136.59;5060594;28;20229;-70
2022/05/31 07:08:05;;;;;;;13.95;6.70;;;;;;;30.22;42.30;95141.31;5062773;28;20205;-73
2022/05/31 07:10:33;;;;;;;11.52;5.57;;;;;;;29.82;43.25;95131.75;5062608;28;20257;-71
2022/05/31 07:13:00;;;;;;;12.30;5.72;;;;;;;29.71;44.50;95131.09;5061660;28;20640;-71
2022/05/31 07:15:27;;;;;;;19.40;5.80;;;;;;;29.62;44.78;95136.53;5061711;28;20201;-71
2022/05/31 07:17:54;;;;;;;9.20;5.65;;;;;;;29.62;44.17;95134.75;5061746;28;20283;-72
2022/05/31 07:20:21;;;;;;;8.32;5.28;;;;;;;29.29;45.62;95144.38;5061271;28;21181;-72
2022/05/31 07:22:48;;;;;;;7.55;5.95;;;;;;;29.43;45.15;95140.34;5062463;28;20620;-71
2022/05/31 07:25:15;;;;;;;17.13;7.65;;;;;;;29.49;45.85;95144.88;5061501;28;20731;-71
2022/05/31 07:27:43;;;;;;;28.20;11.18;;;;;;;29.63;45.62;95146.03;5062131;28;20290;-71
2022/05/31 07:30:11;;;;;;;20.85;7.38;;;;;;;29.83;44.78;95143.88;5061214;28;20234;-72
2022/05/31 07:32:37;;;;;;;7.22;6.07;;;;;;;29.89;44.75;95140.59;5061755;28;20232;-71
2022/05/31 07:35:05;;;;;;;8.63;5.32;;;;;;;29.86;45.13;95143.53;5062027;28;20210;-72
2022/05/31 07:37:32;;;;;;;12.90;5.38;;;;;;;30.05;44.94;95140.56;5061587;28;20202;-72
2022/05/31 07:39:59;;;;;;;14.00;7.00;;;;;;;29.83;45.29;95141.25;5063065;28;20220;-69
2022/05/31 07:42:25;;;;;;;11.63;6.00;;;;;;;29.71;45.37;95138.97;5061702;28;20202;-69
2022/05/31 07:44:58;;;;;;;14.05;5.95;;;;;;;29.15;46.10;95133.75;5061108;28;20723;-69
2022/05/31 07:47:26;;;;;;;14.02;6.95;;;;;;;28.98;47.01;95123.25;5060896;28;20268;-70
2022/05/31 07:49:53;;;;;;;18.05;5.57;;;;;;;29.20;46.48;95118.38;5060326;28;20402;-71
2022/05/31 07:52:20;;;;;;;9.98;5.50;;;;;;;29.36;46.50;95124.44;5063243;28;20284;-71
2022/05/31 07:54:46;;;;;;;15.30;6.20;;;;;;;29.44;46.80;95115.78;5066271;28;20205;-72
2022/05/31 07:59:55;;;;;;;9.45;5.10;;;;;;;29.78;45.73;95118.97;5064861;28;20186;-73
2022/05/31 08:02:23;;;;;;;11.80;6.35;;;;;;;29.72;46.24;95108.34;5065039;28;20202;-73
2022/05/31 08:04:50;;;;;;;13.25;5.13;;;;;;;29.44;46.55;95123.63;5064913;28;20194;-73
2022/05/31 08:07:17;;;;;;;13.68;5.47;;;;;;;29.57;46.75;95123.94;5064399;28;20318;-73
2022/05/31 08:09:44;;;;;;;12.48;5.22;;;;;;;29.64;45.49;95119.69;5064349;28;20877;-73
2022/05/31 08:12:11;;;;;;;8.48;5.93;;;;;;;29.62;46.71;95121.66;5065729;28;20286;-72
2022/05/31 08:14:38;;;;;;;8.65;5.18;;;;;;;29.20;44.84;95115.78;5064734;28;20338;-73
2022/05/31 08:17:06;;;;;;;10.05;4.70;;;;;;;29.22;45.14;95119.84;5065552;28;20225;-74
2022/05/31 08:19:34;;;;;;;12.70;4.82;;;;;;;29.50;45.51;95119.53;5065261;28;20198;-74
2022/05/31 08:22:01;;;;;;;7.95;4.45;;;;;;;29.41;45.75;95100.41;5064643;28;20203;-74
2022/05/31 08:24:28;;;;;;;16.52;5.40;;;;;;;29.60;45.12;95110.53;5064607;28;20229;-73
2022/05/31 08:26:55;;;;;;;11.88;4.70;;;;;;;29.37;45.19;95107.72;5063788;28;20233;-71
2022/05/31 08:29:23;;;;;;;332.45;248.98;;;;;;;29.18;45.89;95115.94;5064114;28;20229;-71
2022/05/31 08:31:50;;;;;;;10.35;7.40;;;;;;;28.99;46.21;95105.75;5064554;28;20197;-73
2022/05/31 08:34:17;;;;;;;10.70;6.68;;;;;;;28.53;46.22;95109.75;5064952;28;20282;-72
2022/05/31 08:36:45;;;;;;;9.77;4.35;;;;;;;27.96;48.95;95101.69;5062476;28;20710;-71
2022/05/31 08:39:12;;;;;;;9.13;4.55;;;;;;;27.77;48.03;95105.34;5063036;28;20237;-73
2022/05/31 08:41:44;;;;;;;13.05;5.82;;;;;;;27.94;47.91;95096.63;5062853;28;20235;-73
2022/05/31 08:44:22;;;;;;;6.80;5.93;;;;;;;28.38;48.12;95097.31;5063079;28;20599;-72
2022/05/31 08:47:01;;;;;;;10.63;7.00;;;;;;;28.81;48.14;95095.47;5064458;28;20233;-72
2022/05/31 08:52:59;;;;;;;8.55;4.88;;;;;;;28.78;46.58;95095.75;5065558;28;20274;-72
2022/05/31 08:58:18;;;;;;;9.95;4.88;;;;;;;29.35;44.81;95093.16;5061912;28;20212;-71
2022/05/31 09:00:48;;;;;;;6.90;3.55;;;;;;;29.33;43.94;95088.09;5063749;28;20225;-72
2022/05/31 09:03:20;;;;;;;8.02;5.03;;;;;;;29.18;42.96;95086.31;5063232;28;20252;-72
2022/05/31 09:05:55;;;;;;;14.32;6.75;;;;;;;29.00;44.75;95082.06;5063769;28;20202;-72
2022/05/31 09:08:25;;;;;;;10.20;7.32;;;;;;;29.52;44.48;95081.72;5063488;28;20278;-72
2022/05/31 09:11:01;;;;;;;12.77;7.97;;;;;;;29.71;42.88;95091.81;5064156;28;20229;-73
2022/05/31 09:13:34;;;;;;;10.82;4.72;;;;;;;29.58;40.38;95073.19;5063474;28;20221;-72
2022/05/31 09:16:11;;;;;;;21.83;16.83;;;;;;;29.90;40.74;95081.97;5062947;28;20234;-73
2022/05/31 09:18:45;;;;;;;15.20;5.40;;;;;;;29.80;39.19;95090.00;5062865;28;20258;-72
2022/05/31 09:21:18;;;;;;;11.85;8.55;;;;;;;29.61;38.94;95048.47;5062761;28;20552;-73
2022/05/31 09:23:46;;;;;;;10.98;8.88;;;;;;;30.05;39.23;95069.81;5063967;28;20278;-72
2022/05/31 09:26:52;;;;;;;14.13;8.45;;;;;;;30.30;39.62;95081.81;5063788;28;20687;-72
2022/05/31 09:29:22;;;;;;;25.05;12.45;;;;;;;30.27;39.69;95081.31;5061680;28;20229;-72
2022/05/31 09:32:02;;;;;;;17.08;13.45;;;;;;;30.45;39.41;95071.38;5064183;28;20206;-72
2022/05/31 09:34:49;;;;;;;16.48;11.18;;;;;;;30.33;40.29;95076.22;5061065;28;20776;-72
2022/05/31 09:37:26;;;;;;;14.20;12.60;;;;;;;29.99;40.62;95075.72;5062378;28;20253;-72
2022/05/31 09:40:10;;;;;;;20.00;14.57;;;;;;;30.06;40.84;95074.06;5063630;28;20217;-72
2022/05/31 09:42:44;;;;;;;10.85;5.07;;;;;;;29.91;41.21;95076.56;5065447;28;20209;-72
2022/05/31 09:45:15;;;;;;;41.83;20.98;;;;;;;30.11;40.69;95061.25;5061916;28;20201;-72
2022/05/31 09:47:41;;;;;;;25.67;16.77;;;;;;;30.11;41.27;95074.38;5068664;28;20270;-72
2022/05/31 09:50:10;;;;;;;21.20;14.18;;;;;;;30.20;40.75;95075.94;5081308;28;20253;-73
2022/05/31 09:52:42;;;;;;;51.97;18.00;;;;;;;30.02;41.60;95072.75;5080291;28;20719;-74
2022/05/31 09:58:05;;;;;;;7.63;5.93;;;;;;;29.71;39.95;95070.84;5070129;28;20723;-73
2022/05/31 10:00:31;;;;;;;13.18;5.57;;;;;;;29.56;41.95;95072.53;5071496;28;20209;-73
2022/05/31 10:03:05;;;;;;;5.00;4.53;;;;;;;29.60;42.57;95068.63;5070122;28;20593;-72
2022/05/31 10:05:32;;;;;;;7.55;4.25;;;;;;;29.71;40.95;95063.00;5071048;28;20210;-73
2022/05/31 10:07:59;;;;;;;13.68;7.45;;;;;;;29.92;41.24;95067.72;5069815;28;20655;-73
2022/05/31 10:10:29;;;;;;;8.38;4.60;;;;;;;29.91;41.33;95066.06;5068341;28;20238;-73
2022/05/31 10:12:59;;;;;;;9.00;4.72;;;;;;;30.09;41.24;95061.44;5087397;28;20253;-73
2022/05/31 10:15:40;;;;;;;9.85;6.63;;;;;;;30.27;40.54;95066.41;5089138;28;20558;-73
2022/05/31 10:18:09;;;;;;;9.65;6.90;;;;;;;30.29;40.59;95053.13;5068670;28;20665;-72
2022/05/31 10:20:37;;;;;;;6.38;5.78;;;;;;;29.96;41.24;95057.69;5068324;28;20260;-73
2022/05/31 10:23:09;;;;;;;11.52;8.43;;;;;;;30.03;41.01;95063.91;5068319;28;20205;-73
2022/05/31 10:25:41;;;;;;;11.50;6.28;;;;;;;29.94;41.66;95064.91;5069125;28;20258;-73
2022/05/31 10:28:15;;;;;;;7.05;4.65;;;;;;;29.92;40.28;95051.97;5070399;28;20226;-73
2022/05/31 10:30:42;;;;;;;10.25;4.45;;;;;;;29.78;40.92;95045.63;5070815;28;20626;-73
2022/05/31 10:33:12;;;;;;;9.98;5.25;;;;;;;29.93;41.72;95037.91;5070690;28;20194;-73
2022/05/31 10:35:42;;;;;;;7.78;3.75;;;;;;;29.85;41.61;95032.69;5070820;28;20275;-72
2022/05/31 10:38:26;;;;;;;10.25;6.15;;;;;;;30.04;41.71;95037.53;5070205;28;20761;-72
2022/05/31 10:40:59;;;;;;;12.80;4.43;;;;;;;30.05;41.42;95035.72;5071716;28;20198;-73
2022/05/31 10:43:40;;;;;;;9.15;5.32;;;;;;;30.20;40.58;95028.75;5090591;28;20243;-73
2022/05/31 10:46:12;;;;;;;9.27;3.97;;;;;;;30.42;41.07;95020.13;5086655;28;20243;-72
2022/05/31 10:48:46;;;;;;;8.30;4.70;;;;;;;30.40;41.60;95021.28;5070111;28;20209;-72
2022/05/31 10:51:22;;;;;;;7.20;3.47;;;;;;;30.17;40.33;95026.50;5074445;28;20278;-73
2022/05/31 10:54:04;;;;;;;9.50;4.63;;;;;;;30.22;40.74;95026.78;5090570;28;20352;-72
2022/05/31 10:56:40;;;;;;;18.25;9.35;;;;;;;30.44;39.22;95012.88;5083130;28;20209;-73
2022/05/31 10:59:17;;;;;;;4.55;3.97;;;;;;;30.25;38.87;95018.59;5070035;28;20217;-73
2022/05/31 11:02:04;;;;;;;5.43;4.03;;;;;;;30.41;39.08;95010.63;5070562;28;20217;-71
2022/05/31 11:04:48;;;;;;;6.13;4.68;;;;;;;30.24;40.24;95014.31;5070005;28;20731;-71
2022/05/31 11:07:27;;;;;;;6.75;3.05;;;;;;;30.42;39.33;95007.03;5070417;28;20252;-71
2022/05/31 11:13:00;;;;;;;7.43;2.83;;;;;;;30.27;37.07;94995.63;5087490;28;20573;-73
2022/05/31 11:15:39;;;;;;;16.80;3.80;;;;;;;30.23;38.28;94996.97;5089816;28;20197;-71
2022/05/31 11:18:33;;;;;;;6.43;3.28;;;;;;;30.33;38.09;94992.31;5070307;28;20206;-72
2022/05/31 11:21:06;;;;;;;4.03;3.30;;;;;;;30.20;36.69;94984.19;5069326;28;20658;-72
2022/05/31 11:23:54;;;;;;;7.13;3.17;;;;;;;30.15;37.51;94983.94;5089749;28;20258;-72
2022/05/31 11:26:35;;;;;;;11.52;8.30;;;;;;;30.15;38.20;94983.94;5084582;28;20658;-72
2022/05/31 11:29:37;;;;;;;5.07;4.57;;;;;;;29.92;37.81;94988.28;5074109;28;20190;-72
2022/05/31 11:32:12;;;;;;;8.15;4.57;;;;;;;29.68;38.52;94982.16;5074120;28;20713;-73
2022/05/31 11:34:52;;;;;;;6.32;4.03;;;;;;;29.66;39.20;94976.28;5073610;28;20194;-73
2022/05/31 11:37:41;;;;;;;3.92;3.35;;;;;;;29.62;40.70;94977.59;5074458;28;20267;-73
2022/05/31 11:40:20;;;;;;;5.53;2.65;;;;;;;29.13;40.70;94981.31;5073847;28;20237;-73
2022/05/31 11:43:05;;;;;;;8.43;2.95;;;;;;;28.91;40.62;94973.19;5073746;28;20194;-73
2022/05/31 11:45:42;;;;;;;12.52;11.32;;;;;;;28.92;41.50;94969.56;5074097;28;20194;-73
2022/05/31 11:48:34;;;;;;;5.25;4.75;;;;;;;28.77;40.96;94965.94;5073794;28;20194;-72
2022/05/31 11:51:18;;;;;;;5.97;5.40;;;;;;;29.03;39.64;94961.38;5075693;28;20230;-72
2022/05/31 11:54:02;;;;;;;5.82;3.38;;;;;;;29.14;39.97;94962.00;5094009;28;20189;-73
2022/05/31 11:56:38;;;;;;;5.03;3.85;;;;;;;29.43;39.63;94963.13;5086647;28;20259;-72
2022/05/31 11:59:12;;;;;;;37.58;26.08;;;;;;;29.55;40.55;94955.69;5073437;28;20275;-73
2022/05/31 12:01:47;;;;;;;8.48;5.38;;;;;;;29.72;39.02;94956.44;5073866;28;20194;-73
2022/05/31 12:04:21;;;;;;;5.00;4.70;;;;;;;29.96;39.18;94958.09;5074046;28;20198;-73
2022/05/31 12:06:55;;;;;;;6.68;5.53;;;;;;;29.98;37.74;94954.34;5073721;28;20205;-72